createdAt,value
2023-04-16T00:02:02.311Z,12.12
2023-04-16T00:04:29.537Z,12.33
2023-04-16T00:06:56.804Z,12.45
2023-04-16T00:09:23.633Z,12.47
2023-04-16T00:11:50.656Z,12.56
2023-04-16T00:14:17.671Z,12.54
2023-04-16T00:16:44.773Z,12.64
2023-04-16T00:19:12.275Z,12.52
2023-04-16T00:21:39.394Z,12.41
2023-04-16T00:24:06.192Z,12.20
2023-04-16T00:26:33.342Z,12.10
2023-04-16T00:29:00.660Z,11.89
2023-04-16T00:31:29.405Z,11.91
2023-04-16T00:33:56.807Z,11.84
2023-04-16T00:36:24.617Z,11.79
2023-04-16T00:38:51.707Z,11.74
2023-04-16T00:41:19.003Z,11.69
2023-04-16T00:43:46.508Z,11.60
2023-04-16T00:46:13.828Z,11.56
2023-04-16T00:48:41.866Z,11.47
2023-04-16T00:51:10.208Z,11.31
2023-04-16T00:53:37.632Z,11.33
2023-04-16T00:56:06.842Z,11.30
2023-04-16T00:58:35.360Z,11.39
2023-04-16T01:01:02.902Z,11.59
2023-04-16T01:03:50.163Z,11.68
2023-04-16T01:06:18.280Z,11.70
2023-04-16T01:08:46.780Z,11.71
2023-04-16T01:11:15.362Z,11.73
2023-04-16T01:13:42.530Z,11.69
2023-04-16T01:16:11.314Z,11.65
2023-04-16T01:18:38.890Z,11.63
2023-04-16T01:21:06.155Z,11.57
2023-04-16T01:23:33.313Z,11.50
2023-04-16T01:26:00.449Z,11.49
2023-04-16T01:28:27.448Z,11.45
2023-04-16T01:30:54.386Z,11.43
2023-04-16T01:33:56.337Z,11.37
2023-04-16T01:36:23.847Z,11.26
2023-04-16T01:38:50.840Z,11.36
2023-04-16T01:41:17.990Z,11.30
2023-04-16T01:43:44.930Z,11.37
2023-04-16T01:46:18.253Z,11.44
2023-04-16T01:48:45.670Z,11.43
2023-04-16T01:51:12.771Z,11.34
2023-04-16T01:53:39.705Z,11.41
2023-04-16T01:56:07.063Z,11.44
2023-04-16T01:58:34.449Z,11.49
2023-04-16T02:01:01.713Z,11.44
2023-04-16T02:03:28.876Z,11.45
2023-04-16T02:05:56.168Z,11.44
2023-04-16T02:08:23.444Z,11.51
2023-04-16T02:10:50.973Z,11.57
2023-04-16T02:13:17.871Z,11.53
2023-04-16T02:15:48.593Z,11.51
2023-04-16T02:18:19.794Z,11.61
2023-04-16T02:20:49.670Z,11.71
2023-04-16T02:23:17.709Z,11.69
2023-04-16T02:25:47.585Z,11.73
2023-04-16T02:28:17.012Z,11.71
2023-04-16T02:30:45.774Z,11.71
2023-04-16T02:33:14.795Z,11.71
2023-04-16T02:35:52.107Z,11.67
2023-04-16T02:38:19.243Z,11.66
2023-04-16T02:40:46.396Z,11.62
2023-04-16T02:43:13.428Z,11.64
2023-04-16T02:45:40.741Z,11.70
2023-04-16T02:48:09.154Z,11.70
2023-04-16T02:50:36.277Z,11.74
2023-04-16T02:53:04.548Z,11.79
2023-04-16T02:55:31.468Z,11.73
2023-04-16T02:57:58.479Z,11.72
2023-04-16T03:00:25.731Z,11.70
2023-04-16T03:02:53.106Z,11.67
2023-04-16T03:05:20.127Z,11.67
2023-04-16T03:07:47.288Z,11.58
2023-04-16T03:10:15.510Z,11.54
2023-04-16T03:12:42.484Z,11.37
2023-04-16T03:15:09.923Z,11.26
2023-04-16T03:17:37.044Z,11.22
2023-04-16T03:20:05.099Z,11.23
2023-04-16T03:22:32.128Z,11.29
2023-04-16T03:24:59.266Z,11.30
2023-04-16T03:27:26.433Z,11.16
2023-04-16T03:29:53.508Z,11.10
2023-04-16T03:32:20.578Z,11.05
2023-04-16T03:34:47.685Z,10.86
2023-04-16T03:37:14.604Z,10.73
2023-04-16T03:39:41.900Z,10.71
2023-04-16T03:42:11.193Z,10.78
2023-04-16T03:44:38.035Z,10.67
2023-04-16T03:47:05.100Z,10.71
2023-04-16T03:49:32.113Z,10.69
2023-04-16T03:51:59.620Z,10.72
2023-04-16T03:54:27.199Z,10.67
2023-04-16T03:57:06.185Z,10.70
2023-04-16T03:59:33.633Z,10.68
2023-04-16T04:02:00.942Z,10.73
2023-04-16T04:04:28.171Z,10.81
2023-04-16T04:06:55.123Z,10.99
2023-04-16T04:09:23.228Z,10.91
2023-04-16T04:11:50.660Z,11.05
2023-04-16T04:14:18.040Z,11.17
2023-04-16T04:16:44.999Z,11.32
2023-04-16T04:19:12.697Z,11.49
2023-04-16T04:21:39.688Z,11.63
2023-04-16T04:24:06.987Z,11.79
2023-04-16T04:26:34.289Z,11.91
2023-04-16T04:29:01.479Z,11.95
2023-04-16T04:31:29.983Z,12.03
2023-04-16T04:33:57.084Z,12.05
2023-04-16T04:36:24.428Z,12.25
2023-04-16T04:38:51.689Z,12.26
2023-04-16T04:41:20.131Z,12.48
2023-04-16T04:43:47.519Z,12.68
2023-04-16T04:46:14.701Z,12.86
2023-04-16T04:48:41.706Z,12.92
2023-04-16T04:51:09.220Z,13.08
2023-04-16T04:53:36.483Z,13.25
2023-04-16T04:56:12.348Z,13.39
2023-04-16T04:58:41.546Z,13.43
2023-04-16T05:01:08.756Z,13.60
2023-04-16T05:03:36.138Z,13.62
2023-04-16T05:06:03.232Z,13.73
2023-04-16T05:08:30.034Z,13.86
2023-04-16T05:10:57.123Z,13.98
2023-04-16T05:13:24.176Z,14.12
2023-04-16T05:15:51.052Z,14.27
2023-04-16T05:18:18.110Z,14.40
2023-04-16T05:20:45.509Z,14.64
2023-04-16T05:23:12.512Z,14.86
2023-04-16T05:25:39.398Z,15.04
2023-04-16T05:28:06.133Z,15.25
2023-04-16T05:30:33.127Z,15.38
2023-04-16T05:33:00.272Z,15.54
2023-04-16T05:35:27.857Z,15.65
2023-04-16T05:37:54.967Z,15.78
2023-04-16T05:40:22.121Z,15.86
2023-04-16T05:42:49.434Z,15.90
2023-04-16T05:45:16.556Z,16.00
2023-04-16T05:47:43.850Z,16.10
2023-04-16T05:50:11.165Z,16.18
2023-04-16T05:52:38.900Z,16.41
2023-04-16T05:55:07.404Z,16.52
2023-04-16T05:57:34.531Z,16.67
2023-04-16T06:00:01.630Z,16.75
2023-04-16T06:02:38.910Z,16.82
2023-04-16T06:05:06.230Z,16.92
2023-04-16T06:07:33.029Z,16.93
2023-04-16T06:10:00.170Z,16.89
2023-04-16T06:12:27.654Z,16.92
2023-04-16T06:14:55.097Z,16.77
2023-04-16T06:17:22.752Z,16.88
2023-04-16T06:19:49.767Z,17.03
2023-04-16T06:22:16.814Z,17.07
2023-04-16T06:24:43.925Z,17.08
2023-04-16T06:27:11.117Z,17.29
2023-04-16T06:29:41.523Z,17.44
2023-04-16T06:32:09.380Z,17.28
2023-04-16T06:34:37.639Z,17.19
2023-04-16T06:37:04.656Z,17.20
2023-04-16T06:39:31.958Z,17.23
2023-04-16T06:41:59.132Z,17.19
2023-04-16T06:44:26.162Z,17.23
2023-04-16T06:46:53.745Z,17.33
2023-04-16T06:49:21.571Z,17.10
2023-04-16T06:51:48.458Z,17.25
2023-04-16T06:54:15.827Z,17.35
2023-04-16T06:56:42.906Z,17.35
2023-04-16T06:59:09.846Z,17.48
2023-04-16T07:01:37.084Z,17.65
2023-04-16T07:04:04.539Z,17.82
2023-04-16T07:06:32.221Z,18.09
2023-04-16T07:08:59.223Z,18.34
2023-04-16T07:11:26.863Z,18.26
2023-04-16T07:13:54.130Z,18.15
2023-04-16T07:16:21.453Z,18.31
2023-04-16T07:18:48.520Z,18.33
2023-04-16T07:21:15.787Z,18.58
2023-04-16T07:23:42.825Z,18.49
2023-04-16T07:26:09.914Z,18.81
2023-04-16T07:28:36.958Z,18.99
2023-04-16T07:31:04.423Z,19.04
2023-04-16T07:33:31.278Z,19.11
2023-04-16T07:35:58.324Z,19.22
2023-04-16T07:38:25.420Z,19.16
2023-04-16T07:40:52.250Z,19.00
2023-04-16T07:43:19.145Z,18.91
2023-04-16T07:45:46.223Z,19.20
2023-04-16T07:48:13.329Z,19.19
2023-04-16T07:50:41.854Z,19.33
2023-04-16T07:53:08.749Z,19.63
2023-04-16T07:55:35.730Z,19.66
2023-04-16T07:58:03.074Z,19.66
2023-04-16T08:00:29.971Z,19.47
2023-04-16T08:02:57.174Z,19.65
2023-04-16T08:05:24.322Z,19.91
2023-04-16T08:07:51.486Z,19.68
2023-04-16T08:10:18.431Z,19.69
2023-04-16T08:12:45.562Z,19.55
2023-04-16T08:15:12.485Z,19.73
2023-04-16T08:17:39.477Z,19.70
2023-04-16T08:20:07.028Z,19.81
2023-04-16T08:22:34.163Z,19.68
2023-04-16T08:25:01.126Z,19.79
2023-04-16T08:27:28.210Z,19.55
2023-04-16T08:29:55.070Z,19.72
2023-04-16T08:32:22.023Z,19.81
2023-04-16T08:34:49.089Z,19.94
2023-04-16T08:37:16.209Z,19.97
2023-04-16T08:39:43.105Z,20.18
2023-04-16T08:42:21.477Z,20.15
2023-04-16T08:44:51.038Z,20.16
2023-04-16T08:47:18.189Z,20.15
2023-04-16T08:49:46.298Z,20.35
2023-04-16T08:52:20.447Z,20.62
2023-04-16T08:54:58.590Z,20.37
2023-04-16T08:57:36.174Z,19.59
2023-04-16T09:00:04.216Z,19.88
2023-04-16T09:02:31.925Z,20.03
2023-04-16T09:05:00.381Z,20.06
2023-04-16T09:07:29.112Z,20.29
2023-04-16T09:09:59.795Z,20.34
2023-04-16T09:12:28.071Z,19.98
2023-04-16T09:14:57.267Z,20.11
2023-04-16T09:17:24.313Z,20.21
2023-04-16T09:19:51.411Z,20.16
2023-04-16T09:22:18.509Z,19.93
2023-04-16T09:24:45.401Z,20.14
2023-04-16T09:27:13.420Z,20.27
2023-04-16T09:29:41.324Z,20.22
2023-04-16T09:32:10.859Z,20.04
2023-04-16T09:34:58.119Z,20.09
2023-04-16T09:37:26.853Z,19.88
2023-04-16T09:40:01.891Z,19.72
2023-04-16T09:42:30.985Z,19.81
2023-04-16T09:45:00.500Z,19.65
2023-04-16T09:47:43.856Z,19.47
2023-04-16T09:50:18.198Z,19.30
2023-04-16T09:52:50.073Z,19.22
2023-04-16T09:55:16.892Z,19.20
2023-04-16T09:57:44.121Z,19.38
2023-04-16T10:00:11.626Z,19.15
2023-04-16T10:02:42.696Z,19.07
2023-04-16T10:05:10.017Z,18.68
2023-04-16T10:07:37.896Z,18.65
2023-04-16T10:10:05.494Z,18.57
2023-04-16T10:12:35.658Z,18.45
2023-04-16T10:15:02.656Z,18.35
2023-04-16T10:17:31.370Z,18.44
2023-04-16T10:19:59.139Z,18.04
2023-04-16T10:22:26.827Z,17.73
2023-04-16T10:24:55.068Z,17.55
2023-04-16T10:27:22.803Z,17.60
2023-04-16T10:29:50.903Z,17.40
2023-04-16T10:32:20.874Z,17.14
2023-04-16T10:34:48.450Z,17.03
2023-04-16T10:37:18.138Z,16.92
2023-04-16T10:39:45.379Z,17.03
2023-04-16T10:42:13.139Z,16.99
2023-04-16T10:44:44.432Z,16.95
2023-04-16T10:47:13.554Z,17.04
2023-04-16T10:49:41.823Z,17.19
2023-04-16T10:52:12.236Z,17.15
2023-04-16T10:54:40.062Z,17.21
2023-04-16T10:57:15.016Z,17.20
2023-04-16T10:59:43.928Z,17.19
2023-04-16T11:02:19.755Z,17.33
2023-04-16T11:04:48.459Z,17.51
2023-04-16T11:07:33.026Z,17.94
2023-04-16T11:10:05.553Z,18.19
2023-04-16T11:12:40.021Z,18.37
2023-04-16T11:15:11.745Z,18.43
2023-04-16T11:17:46.626Z,18.56
2023-04-16T11:20:22.321Z,18.83
2023-04-16T11:22:51.007Z,19.12
2023-04-16T11:25:31.869Z,19.34
2023-04-16T11:28:01.658Z,19.48
2023-04-16T11:30:36.577Z,19.57
2023-04-16T11:33:04.798Z,19.64
2023-04-16T11:35:32.505Z,19.37
2023-04-16T11:37:59.620Z,19.35
2023-04-16T11:40:31.199Z,19.32
2023-04-16T11:46:55.490Z,19.38
2023-04-16T11:49:32.706Z,19.84
2023-04-16T11:54:50.688Z,19.68
2023-04-16T11:57:30.901Z,19.32
2023-04-16T12:00:02.186Z,19.53
2023-04-16T12:02:45.362Z,19.31
2023-04-16T12:05:39.155Z,19.53
2023-04-16T12:08:08.813Z,19.41
2023-04-16T12:10:38.115Z,19.28
2023-04-16T12:13:12.880Z,19.22
2023-04-16T12:15:54.097Z,19.33
2023-04-16T12:18:23.787Z,19.45
2023-04-16T12:20:51.461Z,19.60
2023-04-16T12:23:25.876Z,19.55
2023-04-16T12:25:53.273Z,19.52
2023-04-16T12:28:35.196Z,19.52
2023-04-16T12:31:03.671Z,19.54
2023-04-16T12:33:31.792Z,19.51
2023-04-16T12:35:58.675Z,19.56
2023-04-16T12:38:26.489Z,19.66
2023-04-16T12:40:57.133Z,19.94
2023-04-16T12:43:24.704Z,20.48
2023-04-16T12:45:51.661Z,20.74
2023-04-16T12:48:18.576Z,20.75
2023-04-16T12:50:46.256Z,20.65
2023-04-16T12:53:13.343Z,20.65
2023-04-16T12:55:40.507Z,20.42
2023-04-16T12:58:11.117Z,20.69
2023-04-16T13:00:40.014Z,20.63
2023-04-16T13:03:07.245Z,20.84
2023-04-16T13:05:34.621Z,20.84
2023-04-16T13:08:01.569Z,20.52
2023-04-16T13:10:28.839Z,20.76
2023-04-16T13:12:56.036Z,20.63
2023-04-16T13:15:23.209Z,20.33
2023-04-16T13:17:50.190Z,20.39
2023-04-16T13:20:17.339Z,20.20
2023-04-16T13:22:44.550Z,20.26
2023-04-16T13:25:11.651Z,20.50
2023-04-16T13:27:38.599Z,20.56
2023-04-16T13:30:06.324Z,20.70
2023-04-16T13:32:33.334Z,20.73
2023-04-16T13:35:22.172Z,20.50
2023-04-16T13:38:21.669Z,20.49
2023-04-16T13:40:48.860Z,20.52
2023-04-16T13:43:18.913Z,20.44
2023-04-16T13:45:46.428Z,20.44
2023-04-16T13:48:13.271Z,20.56
2023-04-16T13:50:40.536Z,20.78
2023-04-16T13:53:07.514Z,21.11
2023-04-16T13:55:34.655Z,21.42
2023-04-16T13:58:01.516Z,21.41
2023-04-16T14:00:28.656Z,21.57
2023-04-16T14:02:55.725Z,21.60
2023-04-16T14:05:26.438Z,21.71
2023-04-16T14:07:54.201Z,21.32
2023-04-16T14:10:21.375Z,21.69
2023-04-16T14:12:48.668Z,21.58
2023-04-16T14:15:15.928Z,21.56
2023-04-16T14:17:44.209Z,21.28
2023-04-16T14:20:12.908Z,21.24
2023-04-16T14:22:40.260Z,21.27
2023-04-16T14:25:07.562Z,21.20
2023-04-16T14:27:35.105Z,20.95
2023-04-16T14:30:02.154Z,20.96
2023-04-16T14:32:29.224Z,20.75
2023-04-16T14:34:56.368Z,20.57
2023-04-16T14:37:24.762Z,20.62
2023-04-16T14:39:51.865Z,20.39
2023-04-16T14:42:18.953Z,20.22
2023-04-16T14:44:45.956Z,20.09
2023-04-16T14:47:16.334Z,20.10
2023-04-16T14:49:43.189Z,19.93
2023-04-16T14:52:27.772Z,19.86
2023-04-16T14:55:08.843Z,19.74
2023-04-16T14:58:26.115Z,19.67
2023-04-16T15:00:53.460Z,19.42
2023-04-16T15:03:26.658Z,19.35
2023-04-16T15:06:19.500Z,19.15
2023-04-16T15:08:46.394Z,18.89
2023-04-16T15:11:13.394Z,18.74
2023-04-16T15:13:44.731Z,18.73
2023-04-16T15:16:12.175Z,18.67
2023-04-16T15:18:46.726Z,18.64
2023-04-16T15:21:17.373Z,18.73
2023-04-16T15:23:44.792Z,18.78
2023-04-16T15:26:12.115Z,18.92
2023-04-16T15:28:45.441Z,18.90
2023-04-16T15:31:21.923Z,18.98
2023-04-16T15:34:17.718Z,18.99
2023-04-16T15:37:24.645Z,18.89
2023-04-16T15:39:51.421Z,18.89
2023-04-16T15:42:18.407Z,19.13
2023-04-16T15:44:45.484Z,19.07
2023-04-16T15:47:12.471Z,18.94
2023-04-16T15:49:39.465Z,19.10
2023-04-16T15:52:06.432Z,19.10
2023-04-16T15:54:33.419Z,19.03
2023-04-16T15:57:00.754Z,19.08
2023-04-16T15:59:27.621Z,18.89
2023-04-16T16:01:55.023Z,18.78
2023-04-16T16:04:23.162Z,18.72
2023-04-16T16:06:50.926Z,18.76
2023-04-16T16:09:25.657Z,18.74
2023-04-16T16:12:22.996Z,18.70
2023-04-16T16:14:59.144Z,18.74
2023-04-16T16:17:52.888Z,18.78
2023-04-16T16:20:20.398Z,18.58
2023-04-16T16:22:48.542Z,18.35
2023-04-16T16:25:35.675Z,18.39
2023-04-16T16:28:11.399Z,18.38
2023-04-16T16:31:09.096Z,18.13
2023-04-16T16:33:37.862Z,18.13
2023-04-16T16:36:10.455Z,18.07
2023-04-16T16:38:38.161Z,17.96
2023-04-16T16:41:04.953Z,17.91
2023-04-16T16:43:31.991Z,17.77
2023-04-16T16:45:58.988Z,17.60
2023-04-16T16:48:25.959Z,17.56
2023-04-16T16:50:52.965Z,17.61
2023-04-16T16:53:19.977Z,17.48
2023-04-16T16:55:46.925Z,17.50
2023-04-16T16:58:13.730Z,17.43
2023-04-16T17:00:40.775Z,17.38
2023-04-16T17:03:09.173Z,17.31
2023-04-16T17:05:36.315Z,17.34
2023-04-16T17:08:03.147Z,17.09
2023-04-16T17:10:31.930Z,16.95
2023-04-16T17:12:59.195Z,16.93
2023-04-16T17:15:26.077Z,16.84
2023-04-16T17:17:53.074Z,16.62
2023-04-16T17:20:20.332Z,16.64
2023-04-16T17:22:47.375Z,16.59
2023-04-16T17:25:14.649Z,16.60
2023-04-16T17:27:41.729Z,16.53
2023-04-16T17:30:09.320Z,16.49
2023-04-16T17:32:36.438Z,16.31
2023-04-16T17:35:04.422Z,16.23
2023-04-16T17:37:32.033Z,16.34
2023-04-16T17:39:59.069Z,16.29
2023-04-16T17:42:26.129Z,16.20
2023-04-16T17:44:53.251Z,16.14
2023-04-16T17:47:20.298Z,16.06
2023-04-16T17:49:47.600Z,15.98
2023-04-16T17:52:14.520Z,15.94
2023-04-16T17:54:42.428Z,15.80
2023-04-16T17:57:09.321Z,15.81
2023-04-16T17:59:37.120Z,15.80
2023-04-16T18:02:04.699Z,15.74
2023-04-16T18:04:31.991Z,15.64
2023-04-16T18:06:59.034Z,15.59
2023-04-16T18:09:26.310Z,15.55
2023-04-16T18:11:53.907Z,15.50
2023-04-16T18:14:21.669Z,15.42
2023-04-16T18:16:49.372Z,15.44
2023-04-16T18:19:16.727Z,15.30
2023-04-16T18:21:43.998Z,15.20
2023-04-16T18:24:11.630Z,15.29
2023-04-16T18:26:40.730Z,15.23
2023-04-16T18:29:09.006Z,15.07
2023-04-16T18:31:36.131Z,15.08
2023-04-16T18:34:03.095Z,15.05
2023-04-16T18:36:30.176Z,14.97
2023-04-16T18:39:02.133Z,14.90
2023-04-16T18:41:30.833Z,14.85
2023-04-16T18:43:57.872Z,14.82
2023-04-16T18:46:25.482Z,14.77
2023-04-16T18:48:52.939Z,14.78
2023-04-16T18:51:19.979Z,14.76
2023-04-16T18:53:47.060Z,14.70
2023-04-16T18:56:14.163Z,14.65
2023-04-16T18:58:41.140Z,14.52
2023-04-16T19:01:11.413Z,14.48
2023-04-16T19:03:40.916Z,14.44
2023-04-16T19:06:08.007Z,14.39
2023-04-16T19:09:07.925Z,14.33
2023-04-16T19:11:47.478Z,14.24
2023-04-16T19:14:14.318Z,14.09
2023-04-16T19:16:41.907Z,14.02
2023-04-16T19:19:09.244Z,13.97
2023-04-16T19:21:42.418Z,13.92
2023-04-16T19:24:09.562Z,13.83
2023-04-16T19:26:36.332Z,13.71
2023-04-16T19:29:03.529Z,13.63
2023-04-16T19:31:30.780Z,13.53
2023-04-16T19:33:57.717Z,13.42
2023-04-16T19:36:32.290Z,13.49
2023-04-16T19:38:59.151Z,13.34
2023-04-16T19:41:26.023Z,13.28
2023-04-16T19:43:54.876Z,13.08
2023-04-16T19:46:22.019Z,13.07
2023-04-16T19:48:48.978Z,13.02
2023-04-16T19:51:15.988Z,12.94
2023-04-16T19:53:42.838Z,12.78
2023-04-16T19:56:09.857Z,12.66
2023-04-16T19:58:36.815Z,12.63
2023-04-16T20:01:08.828Z,12.66
2023-04-16T20:03:38.901Z,12.55
2023-04-16T20:06:07.998Z,12.48
2023-04-16T20:08:35.060Z,12.41
2023-04-16T20:11:02.081Z,12.43
2023-04-16T20:13:28.960Z,12.40
2023-04-16T20:15:56.636Z,12.34
2023-04-16T20:18:23.536Z,12.31
2023-04-16T20:20:50.607Z,12.22
2023-04-16T20:23:17.535Z,12.16
2023-04-16T20:25:46.003Z,12.18
2023-04-16T20:28:16.350Z,12.09
2023-04-16T20:30:43.313Z,12.03
2023-04-16T20:33:10.318Z,12.01
2023-04-16T20:35:37.451Z,11.97
2023-04-16T20:38:04.333Z,11.97
2023-04-16T20:40:31.266Z,11.96
2023-04-16T20:43:16.328Z,11.92
2023-04-16T20:45:46.271Z,11.78
2023-04-16T20:48:13.403Z,11.80
2023-04-16T20:50:40.848Z,11.87
2023-04-16T20:53:07.807Z,11.77
2023-04-16T20:55:34.921Z,11.66
2023-04-16T20:58:01.842Z,11.56
2023-04-16T21:00:29.391Z,11.45
2023-04-16T21:02:56.560Z,11.42
2023-04-16T21:05:23.920Z,11.41
2023-04-16T21:07:51.413Z,11.35
2023-04-16T21:10:20.376Z,11.35
2023-04-16T21:12:47.501Z,11.28
2023-04-16T21:15:14.392Z,11.36
2023-04-16T21:17:41.425Z,11.38
2023-04-16T21:20:13.499Z,11.33
2023-04-16T21:22:40.528Z,11.36
2023-04-16T21:25:08.015Z,11.40
2023-04-16T21:27:34.889Z,11.39
2023-04-16T21:30:01.796Z,11.50
2023-04-16T21:32:28.885Z,11.48
2023-04-16T21:34:55.883Z,11.57
2023-04-16T21:37:22.811Z,11.64
2023-04-16T21:39:49.933Z,11.64
2023-04-16T21:42:17.094Z,11.65
2023-04-16T21:44:44.025Z,11.62
2023-04-16T21:47:10.993Z,11.71
2023-04-16T21:49:37.869Z,11.58
2023-04-16T21:52:05.033Z,11.67
2023-04-16T21:54:31.876Z,11.64
2023-04-16T21:56:59.370Z,11.52
2023-04-16T21:59:26.153Z,11.43
2023-04-16T22:01:53.396Z,11.32
2023-04-16T22:04:26.215Z,11.12
2023-04-16T22:06:56.603Z,11.00
2023-04-16T22:09:26.219Z,10.90
2023-04-16T22:11:53.253Z,10.88
2023-04-16T22:14:20.590Z,10.86
2023-04-16T22:16:50.047Z,10.89
2023-04-16T22:19:17.809Z,10.87
2023-04-16T22:21:44.749Z,10.83
2023-04-16T22:24:11.983Z,10.82
2023-04-16T22:26:38.848Z,10.82
2023-04-16T22:29:05.915Z,10.73
2023-04-16T22:31:33.101Z,10.79
2023-04-16T22:34:01.521Z,10.77
2023-04-16T22:36:31.001Z,10.77
2023-04-16T22:38:58.087Z,10.71
2023-04-16T22:41:25.328Z,10.63
2023-04-16T22:43:52.538Z,10.52
2023-04-16T22:46:24.740Z,10.53
2023-04-16T22:48:52.026Z,10.53
2023-04-16T22:51:19.019Z,10.52
2023-04-16T22:53:46.096Z,10.48
2023-04-16T22:56:12.882Z,10.44
2023-04-16T22:58:40.340Z,10.43
2023-04-16T23:01:07.212Z,10.37
2023-04-16T23:03:34.215Z,10.34
2023-04-16T23:06:01.176Z,10.17
2023-04-16T23:08:28.144Z,10.17
2023-04-16T23:10:55.164Z,10.17
2023-04-16T23:13:22.177Z,10.10
2023-04-16T23:15:49.092Z,10.12
2023-04-16T23:18:16.384Z,10.08
2023-04-16T23:20:43.318Z,10.15
2023-04-16T23:23:10.261Z,10.19
2023-04-16T23:25:37.201Z,10.15
2023-04-16T23:28:04.253Z,10.13
2023-04-16T23:30:31.050Z,10.14
2023-04-16T23:32:57.985Z,10.15
2023-04-16T23:35:24.839Z,10.08
2023-04-16T23:37:52.008Z,10.00
2023-04-16T23:40:23.438Z,9.97
2023-04-16T23:42:50.345Z,9.91
2023-04-16T23:45:17.164Z,9.87
2023-04-16T23:47:44.813Z,9.87
2023-04-16T23:50:11.860Z,9.97
2023-04-16T23:52:38.902Z,9.85
2023-04-16T23:55:06.162Z,9.99
2023-04-16T23:57:32.961Z,9.95
2023-04-16T23:59:59.824Z,9.96
